Time;durP1;ratioP1;P1;durP2;ratioP2;P2;SDS_P1;SDS_P2;PMS_P1;PMS_P2;Temp;Humidity;BMP_temperature;BMP_pressure;BME280_temperature;BME280_humidity;BME280_pressure;Samples;Min_cycle;Max_cycle;Signal;HPM_P1;HPM_P2
2023/07/09 00:01:51;;;;;;;4.28;1.67;;;;;;;28.12;35.34;100561.84;5035822;28;20438;-74
2023/07/09 00:04:21;;;;;;;2.13;1.50;;;;;;;28.04;34.52;100560.47;5039480;28;20780;-79
2023/07/09 00:06:49;;;;;;;3.10;1.70;;;;;;;28.09;35.01;100553.19;5034859;28;20414;-78
2023/07/09 00:09:20;;;;;;;7.97;1.83;;;;;;;28.12;35.35;100551.22;5041944;28;20076;-77
2023/07/09 00:11:49;;;;;;;7.05;1.83;;;;;;;28.19;35.01;100546.47;5035499;28;20100;-78
2023/07/09 00:14:18;;;;;;;9.13;2.58;;;;;;;28.28;35.15;100534.53;5038613;28;20100;-78
2023/07/09 00:16:48;;;;;;;4.50;1.90;;;;;;;28.36;35.96;100537.72;5037315;28;20053;-81
2023/07/09 00:19:23;;;;;;;4.65;2.20;;;;;;;28.43;36.56;100536.47;5050808;28;20140;-74
2023/07/09 00:21:53;;;;;;;4.78;1.80;;;;;;;28.46;36.68;100533.66;5030906;28;20052;-75
2023/07/09 00:24:22;;;;;;;4.65;1.52;;;;;;;28.40;35.82;100528.63;5030210;28;20140;-75
2023/07/09 00:26:51;;;;;;;5.72;1.77;;;;;;;28.32;36.31;100528.16;5039472;28;20041;-75
2023/07/09 00:29:20;;;;;;;5.30;1.73;;;;;;;28.29;36.78;100525.59;5034909;28;20053;-75
2023/07/09 00:31:48;;;;;;;7.82;1.65;;;;;;;28.24;36.37;100528.50;5047128;27;20558;-75
2023/07/09 00:34:21;;;;;;;3.03;1.70;;;;;;;28.17;36.66;100532.38;5035414;28;20785;-75
2023/07/09 00:36:57;;;;;;;3.30;1.48;;;;;;;28.08;37.80;100527.50;5030800;28;20076;-75
2023/07/09 00:39:26;;;;;;;3.92;1.70;;;;;;;27.99;36.60;100521.69;5035011;28;20122;-77
2023/07/09 00:41:55;;;;;;;5.32;1.77;;;;;;;27.72;36.16;100529.09;5047947;28;20229;-78
2023/07/09 00:44:30;;;;;;;6.45;2.05;;;;;;;27.69;37.35;100523.91;5043559;28;20134;-73
2023/07/09 00:47:25;;;;;;;5.50;1.88;;;;;;;27.65;37.02;100525.00;5035868;28;20131;-75
2023/07/09 00:50:09;;;;;;;5.25;1.70;;;;;;;27.64;36.69;100522.41;5045197;28;20041;-76
2023/07/09 00:52:45;;;;;;;4.03;1.70;;;;;;;27.66;37.65;100517.88;5035300;28;20141;-75
2023/07/09 00:55:20;;;;;;;2.63;1.60;;;;;;;27.64;38.01;100517.09;5033880;28;20053;-75
2023/07/09 00:57:56;;;;;;;4.15;1.50;;;;;;;27.53;37.23;100525.53;5045759;28;20102;-76
2023/07/09 01:00:28;;;;;;;7.03;2.75;;;;;;;27.45;37.57;100519.72;5036259;28;20053;-76
2023/07/09 01:02:59;;;;;;;5.60;2.20;;;;;;;27.50;37.44;100525.69;5043802;28;20105;-79
2023/07/09 01:05:29;;;;;;;4.33;1.93;;;;;;;27.49;37.69;100521.31;5038775;28;20356;-79
2023/07/09 01:07:59;;;;;;;4.55;1.83;;;;;;;27.45;37.59;100514.41;5055892;28;20051;-78
2023/07/09 01:10:27;;;;;;;3.67;1.50;;;;;;;27.40;37.95;100519.03;5052626;28;20120;-79
2023/07/09 01:12:56;;;;;;;2.80;1.70;;;;;;;27.40;38.96;100516.38;5045594;28;20075;-82
2023/07/09 01:15:24;;;;;;;3.58;1.52;;;;;;;27.49;38.36;100508.03;5042361;28;20499;-82
2023/07/09 01:17:53;;;;;;;2.22;1.50;;;;;;;27.56;38.45;100509.47;5042320;28;20071;-76
2023/07/09 01:20:22;;;;;;;2.97;1.65;;;;;;;27.51;38.85;100509.69;5042334;28;20124;-79
2023/07/09 01:22:56;;;;;;;4.63;1.70;;;;;;;27.50;39.43;100520.38;5042332;28;20045;-80
2023/07/09 01:25:26;;;;;;;4.88;1.77;;;;;;;27.43;38.57;100516.25;5042903;28;20060;-80
2023/07/09 01:27:54;;;;;;;4.18;1.65;;;;;;;27.38;38.30;100511.16;5046351;28;20636;-80
2023/07/09 01:30:28;;;;;;;2.83;1.55;;;;;;;27.32;37.94;100514.94;5037607;28;20128;-76
2023/07/09 01:33:00;;;;;;;3.53;1.50;;;;;;;27.23;38.59;100512.69;5040581;28;20051;-75
2023/07/09 01:35:32;;;;;;;2.15;1.45;;;;;;;27.23;38.72;100515.34;5033435;28;20572;-76
2023/07/09 01:38:06;;;;;;;5.03;1.50;;;;;;;27.23;38.46;100512.69;5038124;28;20459;-77
2023/07/09 01:40:35;;;;;;;2.60;1.50;;;;;;;27.26;38.09;100517.00;5042046;28;20418;-79
2023/07/09 01:43:06;;;;;;;3.10;1.50;;;;;;;27.28;38.90;100516.03;5035669;28;20110;-80
2023/07/09 01:45:36;;;;;;;3.87;1.90;;;;;;;27.30;38.71;100516.78;5033145;28;20076;-79
2023/07/09 01:48:05;;;;;;;3.40;1.52;;;;;;;27.35;38.58;100513.94;5043579;28;20056;-79
2023/07/09 01:50:33;;;;;;;3.03;1.35;;;;;;;27.31;38.22;100520.34;5041094;28;20498;-78
2023/07/09 01:53:04;;;;;;;3.70;1.80;;;;;;;27.22;38.22;100513.63;5042539;28;20645;-81
2023/07/09 01:55:32;;;;;;;5.15;1.40;;;;;;;27.20;38.39;100517.25;5046995;28;20401;-81
2023/07/09 01:58:05;;;;;;;4.93;1.85;;;;;;;27.19;38.76;100516.38;5061597;28;20037;-82
2023/07/09 02:00:34;;;;;;;3.88;1.55;;;;;;;27.15;38.27;100518.31;5040217;28;20046;-78
2023/07/09 02:03:03;;;;;;;3.42;1.40;;;;;;;27.07;38.81;100512.44;5047633;28;20044;-80
2023/07/09 02:05:33;;;;;;;2.15;1.67;;;;;;;27.03;38.96;100517.94;5047591;28;20049;-81
2023/07/09 02:08:04;;;;;;;3.47;1.42;;;;;;;27.00;39.44;100524.25;5049470;28;20172;-80
2023/07/09 02:10:35;;;;;;;4.45;1.70;;;;;;;26.90;39.37;100518.47;5040808;28;20490;-79
2023/07/09 02:13:04;;;;;;;2.75;1.90;;;;;;;26.83;39.11;100521.47;5043778;28;20084;-80
2023/07/09 02:15:33;;;;;;;4.57;1.77;;;;;;;26.81;39.05;100521.53;5049034;28;20092;-79
2023/07/09 02:18:01;;;;;;;4.10;1.70;;;;;;;26.80;38.85;100524.22;5037897;28;20461;-81
2023/07/09 02:20:30;;;;;;;5.82;1.50;;;;;;;26.71;38.88;100521.03;5051470;28;20057;-80
2023/07/09 02:23:01;;;;;;;2.78;1.50;;;;;;;26.65;39.45;100528.41;5046518;28;20067;-81
2023/07/09 02:25:31;;;;;;;4.53;2.00;;;;;;;26.63;40.02;100531.09;5045330;28;20045;-79
2023/07/09 02:28:00;;;;;;;3.60;1.55;;;;;;;26.64;40.34;100529.31;5043502;28;20041;-78
2023/07/09 02:30:28;;;;;;;2.22;1.80;;;;;;;26.64;40.43;100539.91;5050405;27;20068;-77
2023/07/09 02:32:57;;;;;;;2.00;1.45;;;;;;;26.64;40.40;100534.63;5060128;28;20041;-78
2023/07/09 02:35:29;;;;;;;2.15;1.52;;;;;;;26.61;39.95;100538.25;5067972;28;20052;-78
2023/07/09 02:38:04;;;;;;;2.15;1.48;;;;;;;26.59;40.20;100541.91;5059694;28;20071;-78
2023/07/09 02:40:37;;;;;;;2.97;1.70;;;;;;;26.53;40.41;100543.84;5068299;28;20109;-79
2023/07/09 02:43:05;;;;;;;4.97;1.90;;;;;;;26.47;40.77;100548.53;5069721;28;20507;-78
2023/07/09 02:45:34;;;;;;;4.47;1.67;;;;;;;26.39;40.84;100543.53;5072420;28;20097;-78
2023/07/09 02:48:03;;;;;;;4.70;1.92;;;;;;;26.36;41.46;100543.66;5070481;28;20108;-78
2023/07/09 02:50:32;;;;;;;4.50;1.80;;;;;;;26.27;41.02;100542.25;5070934;28;20049;-77
2023/07/09 02:53:05;;;;;;;4.90;1.83;;;;;;;26.23;41.51;100547.72;5059128;28;20645;-77
2023/07/09 02:55:35;;;;;;;2.25;1.52;;;;;;;26.16;42.28;100543.56;5068171;28;20075;-78
2023/07/09 02:58:05;;;;;;;4.38;2.08;;;;;;;26.10;41.47;100542.03;5057376;28;20095;-78
2023/07/09 03:00:33;;;;;;;5.35;2.10;;;;;;;26.02;41.79;100537.03;5061648;28;20056;-78
2023/07/09 03:03:02;;;;;;;4.43;2.05;;;;;;;25.97;43.04;100544.25;5064226;28;20044;-78
2023/07/09 03:05:33;;;;;;;3.85;1.70;;;;;;;25.88;42.82;100545.50;5061233;28;20641;-79
2023/07/09 03:08:01;;;;;;;3.17;1.67;;;;;;;25.86;43.48;100546.41;5066524;28;20636;-77
2023/07/09 03:10:31;;;;;;;2.30;1.77;;;;;;;25.84;43.44;100543.00;5065232;28;20398;-78
2023/07/09 03:13:01;;;;;;;3.90;1.88;;;;;;;25.82;43.94;100548.34;5072359;28;20140;-78
2023/07/09 03:15:30;;;;;;;3.13;1.75;;;;;;;25.80;43.46;100549.31;5066724;28;20090;-78
2023/07/09 03:17:58;;;;;;;8.60;2.13;;;;;;;25.79;43.61;100555.53;5060266;28;20044;-78
2023/07/09 03:20:27;;;;;;;5.40;1.92;;;;;;;25.75;43.65;100560.09;5065738;28;20461;-78
2023/07/09 03:22:56;;;;;;;3.80;1.83;;;;;;;25.71;43.67;100548.72;5056903;28;20045;-78
2023/07/09 03:25:24;;;;;;;4.50;1.77;;;;;;;25.68;43.75;100559.44;5061394;28;20048;-79
2023/07/09 03:27:56;;;;;;;6.75;2.30;;;;;;;25.64;43.54;100563.13;5056308;28;20041;-77
2023/07/09 03:30:26;;;;;;;3.85;1.80;;;;;;;25.59;43.63;100567.72;5063758;28;20052;-76
2023/07/09 03:32:54;;;;;;;4.28;1.48;;;;;;;25.53;44.42;100567.94;5066536;28;20044;-78
2023/07/09 03:35:23;;;;;;;4.15;1.83;;;;;;;25.46;44.07;100559.34;5060131;28;20062;-78
2023/07/09 03:37:51;;;;;;;3.63;1.48;;;;;;;25.40;44.56;100566.63;5081740;28;20068;-77
2023/07/09 03:40:24;;;;;;;5.70;1.75;;;;;;;25.35;44.40;100566.78;5073778;28;20062;-77
2023/07/09 03:42:52;;;;;;;5.32;1.77;;;;;;;25.28;44.56;100568.78;5058687;28;20552;-79
2023/07/09 03:45:21;;;;;;;2.65;2.00;;;;;;;25.21;44.54;100569.06;5060967;28;20482;-77
2023/07/09 03:47:51;;;;;;;3.10;1.60;;;;;;;25.14;44.82;100573.66;5061726;28;20052;-79
2023/07/09 03:50:20;;;;;;;2.35;1.58;;;;;;;25.07;44.63;100572.16;5059747;28;20496;-77
2023/07/09 03:52:49;;;;;;;3.03;1.75;;;;;;;25.00;45.35;100575.91;5066163;28;20072;-78
2023/07/09 03:55:18;;;;;;;2.85;1.50;;;;;;;24.94;45.16;100576.09;5055954;28;20059;-77
2023/07/09 03:57:46;;;;;;;4.18;2.03;;;;;;;24.86;45.71;100573.72;5056035;28;20053;-78
2023/07/09 04:00:21;;;;;;;4.80;1.67;;;;;;;24.79;45.34;100567.75;5059416;28;20118;-81
2023/07/09 04:02:51;;;;;;;5.28;1.88;;;;;;;24.71;45.09;100577.72;5061129;28;20045;-78
2023/07/09 04:05:20;;;;;;;4.85;1.60;;;;;;;24.63;44.93;100579.75;5066753;28;20052;-83
2023/07/09 04:07:49;;;;;;;5.40;1.33;;;;;;;24.56;45.37;100580.88;5075520;28;20057;-83
2023/07/09 04:10:18;;;;;;;3.25;1.00;;;;;;;24.48;44.83;100575.78;5058314;28;20052;-80
2023/07/09 04:12:47;;;;;;;3.20;1.40;;;;;;;24.41;44.32;100593.59;5056848;28;20084;-78
2023/07/09 04:15:15;;;;;;;1.48;1.00;;;;;;;24.33;43.93;100595.63;5063000;28;20496;-77
2023/07/09 04:17:44;;;;;;;4.22;1.10;;;;;;;24.27;44.29;100606.38;5060207;28;20063;-79
2023/07/09 04:20:15;;;;;;;2.17;0.90;;;;;;;24.16;44.19;100604.03;5065416;28;20061;-76
2023/07/09 04:22:44;;;;;;;3.13;1.13;;;;;;;24.09;44.49;100613.06;5059673;28;20091;-79
2023/07/09 04:25:13;;;;;;;4.07;1.15;;;;;;;24.02;44.74;100611.50;5068320;28;20052;-80
2023/07/09 04:27:42;;;;;;;1.33;0.77;;;;;;;23.95;44.57;100612.59;5070795;28;20044;-82
2023/07/09 04:30:12;;;;;;;3.55;0.85;;;;;;;23.89;44.93;100618.94;5078471;28;20052;-77
2023/07/09 04:32:43;;;;;;;4.65;0.80;;;;;;;23.83;44.90;100619.09;5067760;28;20060;-80
2023/07/09 04:35:12;;;;;;;1.80;0.65;;;;;;;23.74;44.82;100621.94;5053984;28;20045;-82
2023/07/09 04:37:43;;;;;;;4.03;1.00;;;;;;;23.58;46.96;100630.28;5068602;28;20500;-79
2023/07/09 04:40:13;;;;;;;3.47;1.38;;;;;;;23.41;49.89;100624.59;5061995;28;20106;-77
2023/07/09 04:42:42;;;;;;;2.70;1.23;;;;;;;23.30;49.46;100629.25;5060509;28;20417;-79
2023/07/09 04:45:12;;;;;;;2.03;1.42;;;;;;;23.25;48.73;100633.78;5053302;28;20053;-80
2023/07/09 04:47:41;;;;;;;2.70;1.00;;;;;;;23.20;47.95;100640.06;5065413;28;20048;-79
2023/07/09 04:50:11;;;;;;;2.60;1.10;;;;;;;23.11;48.41;100645.56;5067636;28;20048;-79
2023/07/09 04:52:40;;;;;;;2.80;0.98;;;;;;;23.02;48.54;100643.13;5059136;28;20098;-79
2023/07/09 04:55:13;;;;;;;4.22;1.52;;;;;;;22.96;48.47;100640.59;5064035;28;20052;-78
2023/07/09 04:57:41;;;;;;;1.38;0.80;;;;;;;22.82;47.14;100642.69;5051432;28;20041;-79
2023/07/09 05:00:11;;;;;;;1.98;0.95;;;;;;;22.68;48.42;100643.00;5065824;28;20089;-78
2023/07/09 05:02:40;;;;;;;2.80;0.95;;;;;;;22.52;48.86;100656.53;5064472;28;20139;-78
2023/07/09 05:05:09;;;;;;;2.35;0.80;;;;;;;22.32;48.75;100651.66;5051691;28;20071;-78
2023/07/09 05:07:38;;;;;;;1.70;0.90;;;;;;;22.12;49.40;100653.81;5063200;28;20659;-81
2023/07/09 05:10:07;;;;;;;2.88;1.02;;;;;;;21.99;49.83;100647.94;5067642;28;20560;-78
2023/07/09 05:12:37;;;;;;;2.67;1.13;;;;;;;21.94;50.36;100653.28;5065792;28;20045;-79
2023/07/09 05:15:06;;;;;;;1.60;1.00;;;;;;;21.85;51.44;100656.09;5068943;28;20052;-78
2023/07/09 05:17:35;;;;;;;2.08;1.02;;;;;;;21.70;52.03;100651.97;5052306;28;20053;-78
2023/07/09 05:20:04;;;;;;;2.67;1.00;;;;;;;21.64;52.48;100661.72;5064763;28;20079;-79
2023/07/09 05:22:32;;;;;;;1.85;0.90;;;;;;;21.61;52.16;100661.78;5065686;28;20052;-79
2023/07/09 05:25:01;;;;;;;2.45;1.10;;;;;;;21.52;52.92;100658.41;5060977;28;20049;-77
2023/07/09 05:27:29;;;;;;;2.10;0.90;;;;;;;21.42;51.66;100667.38;5061481;28;20059;-76
2023/07/09 05:30:00;;;;;;;1.75;1.10;;;;;;;21.30;51.84;100672.78;5065216;28;20048;-77
2023/07/09 05:32:28;;;;;;;2.78;0.90;;;;;;;21.19;51.83;100669.44;5067598;27;20060;-78
2023/07/09 05:34:57;;;;;;;2.55;0.85;;;;;;;21.12;54.54;100663.44;5045124;28;20045;-77
2023/07/09 05:37:26;;;;;;;4.03;1.42;;;;;;;20.98;52.86;100666.28;5070945;28;20052;-79
2023/07/09 05:39:54;;;;;;;1.65;0.90;;;;;;;20.89;54.88;100671.66;5062663;28;20127;-79
2023/07/09 05:42:23;;;;;;;2.15;0.88;;;;;;;20.86;54.29;100672.56;5067030;28;20083;-77
2023/07/09 05:44:52;;;;;;;1.60;0.70;;;;;;;20.86;53.64;100676.97;5059629;28;20059;-77
2023/07/09 05:47:23;;;;;;;3.70;0.70;;;;;;;20.85;53.35;100675.25;5061389;28;20045;-78
2023/07/09 05:49:54;;;;;;;1.27;0.60;;;;;;;20.78;54.09;100663.94;5067098;28;20053;-76
2023/07/09 05:52:24;;;;;;;2.63;0.95;;;;;;;20.60;53.62;100678.19;5062912;28;20137;-77
2023/07/09 05:54:53;;;;;;;3.60;0.85;;;;;;;20.52;54.16;100677.38;5063279;28;20049;-77
2023/07/09 05:57:22;;;;;;;8.65;0.95;;;;;;;20.46;54.17;100673.09;5060832;28;20128;-78
2023/07/09 05:59:51;;;;;;;2.17;0.70;;;;;;;20.44;54.22;100668.72;5066379;28;20125;-77
2023/07/09 06:02:23;;;;;;;2.90;1.00;;;;;;;20.40;54.19;100675.78;5064180;28;20052;-77
2023/07/09 06:04:51;;;;;;;1.33;0.60;;;;;;;20.39;54.68;100678.44;5064768;28;20063;-77
2023/07/09 06:07:20;;;;;;;1.35;0.90;;;;;;;20.36;55.67;100681.09;5061181;28;20044;-76
2023/07/09 06:09:51;;;;;;;1.08;0.73;;;;;;;20.34;55.77;100677.59;5061958;28;20045;-77
2023/07/09 06:12:20;;;;;;;1.65;0.80;;;;;;;20.34;55.61;100680.22;5069424;28;20049;-77
2023/07/09 06:14:48;;;;;;;3.10;0.88;;;;;;;20.23;55.86;100681.25;5074156;28;20040;-78
2023/07/09 06:17:17;;;;;;;1.77;1.05;;;;;;;20.18;55.88;100683.06;5072578;28;20071;-78
2023/07/09 06:19:47;;;;;;;3.38;1.00;;;;;;;20.16;55.90;100683.94;5064383;28;20056;-79
2023/07/09 06:22:16;;;;;;;3.50;0.98;;;;;;;20.12;56.06;100669.97;5067486;28;20075;-78
2023/07/09 06:24:46;;;;;;;1.17;0.80;;;;;;;20.09;56.45;100670.88;5059429;28;20080;-78
2023/07/09 06:27:14;;;;;;;1.50;0.95;;;;;;;19.98;57.30;100674.53;5063967;28;20489;-76
2023/07/09 06:29:43;;;;;;;1.67;0.82;;;;;;;19.86;57.45;100676.38;5064796;28;20048;-76
2023/07/09 06:32:11;;;;;;;2.40;0.88;;;;;;;19.80;57.76;100681.69;5053638;28;20056;-77
2023/07/09 06:34:40;;;;;;;1.55;0.70;;;;;;;19.74;58.28;100673.88;5044570;28;20108;-78
2023/07/09 06:37:10;;;;;;;1.17;0.85;;;;;;;19.72;58.43;100667.75;5046053;28;20045;-77
2023/07/09 06:39:38;;;;;;;1.30;0.68;;;;;;;19.68;58.32;100673.91;5043641;28;20049;-77
2023/07/09 06:42:07;;;;;;;3.35;0.80;;;;;;;19.64;58.73;100675.69;5046004;28;20045;-78
2023/07/09 06:44:36;;;;;;;0.80;0.55;;;;;;;19.60;58.60;100667.84;5043599;28;20045;-78
2023/07/09 06:47:05;;;;;;;2.00;0.88;;;;;;;19.53;58.90;100672.28;5046895;28;20119;-78
2023/07/09 06:49:33;;;;;;;2.00;0.90;;;;;;;19.49;59.18;100674.94;5043702;28;20049;-79
2023/07/09 06:52:02;;;;;;;6.55;0.70;;;;;;;19.41;59.10;100673.25;5048685;28;20053;-78
2023/07/09 06:54:32;;;;;;;2.95;0.90;;;;;;;19.36;59.08;100669.81;5042178;28;20053;-79
2023/07/09 06:57:00;;;;;;;1.45;0.80;;;;;;;19.31;59.18;100671.59;5047166;28;21297;-79
2023/07/09 06:59:31;;;;;;;1.15;0.60;;;;;;;19.25;59.72;100676.88;5043794;28;20415;-78
2023/07/09 07:02:00;;;;;;;1.80;0.80;;;;;;;19.19;59.97;100669.91;5043580;28;20063;-79
2023/07/09 07:04:28;;;;;;;5.15;0.90;;;;;;;19.14;60.18;100670.84;5045227;28;20045;-79
2023/07/09 07:06:57;;;;;;;2.70;0.95;;;;;;;19.10;60.51;100666.50;5060965;28;20037;-79
2023/07/09 07:09:26;;;;;;;1.85;1.13;;;;;;;19.03;61.06;100674.44;5050445;28;20099;-78
2023/07/09 07:11:56;;;;;;;1.50;0.70;;;;;;;18.86;62.96;100676.28;5044495;28;20056;-78
2023/07/09 07:14:24;;;;;;;2.95;0.88;;;;;;;18.76;64.38;100672.81;5044941;28;20098;-78
2023/07/09 07:16:53;;;;;;;4.47;0.80;;;;;;;18.68;64.75;100676.34;5038319;28;20053;-77
2023/07/09 07:19:21;;;;;;;1.67;0.60;;;;;;;18.66;63.86;100668.47;5039346;28;20102;-77
2023/07/09 07:21:50;;;;;;;2.03;0.90;;;;;;;18.63;64.06;100674.59;5043303;28;20050;-77
2023/07/09 07:24:18;;;;;;;2.20;0.90;;;;;;;18.60;63.83;100677.25;5045564;28;20053;-78
2023/07/09 07:26:47;;;;;;;1.48;0.73;;;;;;;18.59;64.04;100680.72;5045297;28;20064;-78
2023/07/09 07:29:17;;;;;;;2.38;0.60;;;;;;;18.54;65.60;100690.38;5044332;28;20045;-77
2023/07/09 07:31:46;;;;;;;2.25;1.00;;;;;;;18.36;67.36;100693.06;5039458;28;20059;-76
2023/07/09 07:34:16;;;;;;;2.40;0.80;;;;;;;18.15;68.63;100694.88;5040308;28;20041;-78
2023/07/09 07:36:45;;;;;;;5.68;0.80;;;;;;;18.02;69.12;100703.63;5040889;28;20036;-78
2023/07/09 07:39:15;;;;;;;1.40;0.73;;;;;;;17.92;69.83;100699.28;5043172;28;20041;-78
2023/07/09 07:41:43;;;;;;;5.78;1.10;;;;;;;17.82;71.03;100694.94;5046417;28;20052;-77
2023/07/09 07:44:12;;;;;;;0.85;0.60;;;;;;;17.69;70.80;100705.38;5040657;28;20133;-77
2023/07/09 07:46:44;;;;;;;3.30;0.80;;;;;;;17.61;70.96;100696.66;5049616;28;20041;-76
2023/07/09 07:49:13;;;;;;;1.08;0.80;;;;;;;17.55;70.98;100700.16;5052912;28;20056;-77
2023/07/09 07:51:42;;;;;;;3.17;0.73;;;;;;;17.55;70.12;100696.69;5051443;28;20041;-77
2023/07/09 07:54:11;;;;;;;6.18;1.00;;;;;;;17.56;71.22;100698.41;5045394;28;20054;-78
2023/07/09 07:56:39;;;;;;;7.05;1.08;;;;;;;17.54;70.71;100693.16;5051612;28;20764;-78
2023/07/09 07:59:08;;;;;;;6.47;0.80;;;;;;;17.56;70.70;100698.41;5061671;28;20092;-78
2023/07/09 08:01:37;;;;;;;1.80;0.70;;;;;;;17.59;69.69;100703.63;5046587;28;20060;-78
2023/07/09 08:04:07;;;;;;;2.97;0.80;;;;;;;17.60;69.48;100702.78;5059699;28;20068;-78
2023/07/09 08:06:36;;;;;;;0.93;0.70;;;;;;;17.60;70.04;100705.38;5061870;28;20154;-79
2023/07/09 08:09:06;;;;;;;1.88;0.70;;;;;;;17.56;69.19;100703.63;5059533;28;20057;-79
2023/07/09 08:11:35;;;;;;;2.22;0.70;;;;;;;17.51;69.63;100692.31;5046496;28;20057;-79
2023/07/09 08:14:04;;;;;;;1.13;0.40;;;;;;;17.55;69.03;100701.91;5044991;28;20051;-77
2023/07/09 08:16:32;;;;;;;1.25;1.05;;;;;;;17.48;69.69;100708.00;5044417;28;20051;-77
2023/07/09 08:19:01;;;;;;;1.85;0.65;;;;;;;17.42;69.80;100695.78;5042563;28;20060;-77
2023/07/09 08:21:31;;;;;;;2.58;0.82;;;;;;;17.45;69.88;100706.25;5042053;28;20049;-78
2023/07/09 08:24:00;;;;;;;2.40;0.75;;;;;;;17.44;69.10;100711.50;5042596;28;20041;-77
2023/07/09 08:26:29;;;;;;;1.58;0.77;;;;;;;17.42;69.80;100702.78;5035812;28;20053;-77
2023/07/09 08:28:57;;;;;;;0.75;0.60;;;;;;;17.40;70.64;100704.50;5040558;28;20068;-77
2023/07/09 08:31:26;;;;;;;1.35;0.75;;;;;;;17.34;70.83;100708.88;5044112;28;20063;-78
2023/07/09 08:33:54;;;;;;;1.23;0.90;;;;;;;17.30;70.50;100707.13;5043109;28;20716;-77
2023/07/09 08:36:23;;;;;;;6.13;0.80;;;;;;;17.26;70.99;100705.38;5043899;28;20041;-78
2023/07/09 08:38:53;;;;;;;0.80;0.60;;;;;;;17.25;71.72;100706.25;5044021;28;20059;-78
2023/07/09 08:41:38;;;;;;;2.20;0.75;;;;;;;17.25;71.99;100703.63;5044735;28;20144;-76
2023/07/09 08:44:36;;;;;;;2.78;0.88;;;;;;;17.19;71.96;100708.84;5038141;28;20251;-78
2023/07/09 08:47:13;;;;;;;1.13;0.68;;;;;;;17.18;71.26;100712.34;5041089;28;20057;-78
2023/07/09 08:49:58;;;;;;;0.60;0.50;;;;;;;17.16;71.42;100712.31;5046791;28;20045;-78
2023/07/09 08:52:30;;;;;;;3.60;1.00;;;;;;;17.14;71.44;100705.34;5046572;28;20041;-79
2023/07/09 08:55:05;;;;;;;3.53;0.90;;;;;;;17.10;72.07;100701.84;5054736;28;20042;-77
2023/07/09 08:57:39;;;;;;;1.27;0.80;;;;;;;17.08;72.48;100705.34;5050483;28;20049;-78
2023/07/09 09:00:16;;;;;;;1.98;0.50;;;;;;;17.04;71.16;100706.19;5049736;28;20046;-79
2023/07/09 09:02:53;;;;;;;1.48;0.85;;;;;;;16.95;72.10;100710.53;5048898;28;20045;-78
2023/07/09 09:05:23;;;;;;;1.52;0.80;;;;;;;16.90;72.73;100703.53;5043811;28;20041;-78
2023/07/09 09:07:57;;;;;;;4.18;0.75;;;;;;;16.87;72.82;100712.25;5043530;28;20060;-78
2023/07/09 09:10:38;;;;;;;1.83;0.80;;;;;;;16.85;72.60;100705.28;5046587;28;20063;-79
2023/07/09 09:13:14;;;;;;;1.15;0.70;;;;;;;16.84;73.28;100712.25;5042535;28;20053;-78
2023/07/09 09:15:46;;;;;;;1.15;0.75;;;;;;;16.81;73.85;100720.06;5045559;28;20055;-77
2023/07/09 09:18:23;;;;;;;1.17;0.63;;;;;;;16.73;74.39;100719.16;5049102;28;20048;-78
2023/07/09 09:20:58;;;;;;;1.50;0.60;;;;;;;16.61;74.42;100717.38;5041995;28;20060;-77
2023/07/09 09:23:37;;;;;;;2.90;0.70;;;;;;;16.58;75.61;100716.47;5046701;28;20075;-77
2023/07/09 09:26:17;;;;;;;1.58;0.80;;;;;;;16.50;75.92;100712.09;5046677;28;20080;-76
2023/07/09 09:28:46;;;;;;;0.90;0.55;;;;;;;16.46;75.74;100720.75;5046105;28;20084;-77
2023/07/09 09:31:19;;;;;;;0.60;0.55;;;;;;;16.43;76.71;100725.97;5047310;27;20063;-77
2023/07/09 09:33:49;;;;;;;3.78;0.60;;;;;;;16.43;76.34;100719.91;5062339;28;20525;-77
2023/07/09 09:36:20;;;;;;;2.35;0.80;;;;;;;16.40;75.64;100710.31;5069287;28;20124;-78
2023/07/09 09:38:52;;;;;;;0.47;0.43;;;;;;;16.39;76.00;100705.06;5064140;28;20134;-79
2023/07/09 09:41:24;;;;;;;2.47;0.73;;;;;;;16.39;75.59;100707.69;5070004;28;20567;-78
2023/07/09 09:43:56;;;;;;;1.33;0.70;;;;;;;16.38;76.24;100716.38;5064067;28;20621;-78
2023/07/09 09:46:26;;;;;;;4.35;1.10;;;;;;;16.36;75.93;100711.16;5073855;28;20052;-78
2023/07/09 09:48:58;;;;;;;4.32;0.82;;;;;;;16.35;76.38;100706.78;5075041;28;20062;-78
2023/07/09 09:51:26;;;;;;;2.08;0.77;;;;;;;16.29;77.22;100704.16;5072682;28;20048;-77
2023/07/09 09:53:59;;;;;;;0.75;0.60;;;;;;;16.25;77.08;100702.38;5067873;28;20052;-77
2023/07/09 09:56:31;;;;;;;1.92;0.80;;;;;;;16.22;77.46;100710.22;5064171;28;20052;-77
2023/07/09 09:59:02;;;;;;;1.05;0.75;;;;;;;16.19;77.71;100708.44;5062287;28;20052;-77
2023/07/09 10:01:32;;;;;;;0.73;0.60;;;;;;;16.16;77.06;100697.97;5063814;28;20048;-77
2023/07/09 10:04:02;;;;;;;1.33;0.70;;;;;;;16.07;78.00;100700.53;5065717;28;20493;-77
2023/07/09 10:06:37;;;;;;;1.20;0.80;;;;;;;15.99;77.94;100702.22;5069678;28;20488;-77
2023/07/09 10:09:17;;;;;;;1.80;0.70;;;;;;;15.88;79.48;100704.78;5065660;28;20040;-77
2023/07/09 10:11:55;;;;;;;2.05;0.73;;;;;;;15.83;79.03;100696.06;5063930;28;20045;-78
2023/07/09 10:14:39;;;;;;;1.42;0.80;;;;;;;15.84;78.84;100703.88;5064654;28;20041;-77
2023/07/09 10:17:19;;;;;;;4.20;0.80;;;;;;;15.81;79.82;100713.44;5068117;28;20766;-78
2023/07/09 10:19:55;;;;;;;1.27;0.70;;;;;;;15.70;80.08;100714.19;5060294;28;20049;-78
2023/07/09 10:22:40;;;;;;;1.65;0.75;;;;;;;15.64;80.23;100716.72;5064062;28;20053;-78
2023/07/09 10:25:20;;;;;;;4.18;1.00;;;;;;;15.66;80.27;100720.22;5064729;28;20060;-78
2023/07/09 10:28:04;;;;;;;1.85;0.90;;;;;;;15.67;79.01;100721.97;5065037;28;20094;-78
2023/07/09 10:30:46;;;;;;;2.15;0.85;;;;;;;15.70;79.59;100737.69;5059690;28;20056;-77
2023/07/09 10:33:23;;;;;;;1.42;1.00;;;;;;;15.69;79.90;100730.69;5053902;28;20060;-78
2023/07/09 10:36:02;;;;;;;3.08;1.00;;;;;;;15.70;79.17;100729.84;5045325;28;20041;-77
2023/07/09 10:38:42;;;;;;;1.00;0.80;;;;;;;15.69;79.69;100730.69;5046137;28;20502;-76
2023/07/09 10:41:13;;;;;;;1.40;0.88;;;;;;;15.67;79.75;100721.97;5041814;28;20124;-77
2023/07/09 10:43:49;;;;;;;1.33;0.93;;;;;;;15.67;79.85;100731.53;5051306;28;20501;-78
2023/07/09 10:46:26;;;;;;;4.43;1.40;;;;;;;15.60;79.57;100733.22;5049451;28;20434;-76
2023/07/09 10:48:56;;;;;;;1.40;1.20;;;;;;;15.60;79.21;100728.00;5051311;28;20049;-77
2023/07/09 10:51:28;;;;;;;1.45;1.20;;;;;;;15.56;80.16;100725.38;5051291;28;20107;-78
2023/07/09 10:54:02;;;;;;;1.95;1.10;;;;;;;15.53;79.22;100723.59;5060715;28;20080;-77
2023/07/09 10:56:36;;;;;;;1.50;0.90;;;;;;;15.51;79.59;100730.53;5063602;28;20033;-77
2023/07/09 10:59:18;;;;;;;2.30;1.00;;;;;;;15.43;80.52;100732.19;5067261;28;20049;-78
2023/07/09 11:01:52;;;;;;;2.33;1.40;;;;;;;15.34;81.00;100732.09;5051274;28;20643;-78
2023/07/09 11:04:31;;;;;;;1.48;1.23;;;;;;;15.32;80.44;100723.38;5040640;28;20056;-78
2023/07/09 11:07:04;;;;;;;1.20;0.80;;;;;;;15.34;80.20;100732.09;5042604;28;20540;-77
2023/07/09 11:09:34;;;;;;;3.92;0.90;;;;;;;15.33;79.99;100731.25;5042153;28;20045;-77
2023/07/09 11:12:11;;;;;;;1.27;0.80;;;;;;;15.33;79.08;100727.75;5043145;28;20350;-76
2023/07/09 11:14:47;;;;;;;3.55;1.00;;;;;;;15.30;80.81;100728.56;5045583;28;20041;-77
2023/07/09 11:17:24;;;;;;;3.72;0.98;;;;;;;15.27;79.95;100732.03;5046334;28;20080;-78
2023/07/09 11:19:57;;;;;;;1.65;0.60;;;;;;;15.24;80.34;100729.41;5042945;28;20068;-78
2023/07/09 11:22:28;;;;;;;1.85;0.85;;;;;;;15.22;80.26;100728.50;5043115;28;20048;-78
2023/07/09 11:25:13;;;;;;;2.15;0.90;;;;;;;15.19;80.94;100725.03;5044311;28;20053;-78
2023/07/09 11:27:50;;;;;;;3.35;0.73;;;;;;;15.15;80.10;100724.09;5043434;28;20139;-78
2023/07/09 11:30:25;;;;;;;2.58;1.35;;;;;;;15.12;80.96;100726.69;5043577;28;20050;-76
2023/07/09 11:33:11;;;;;;;1.23;1.00;;;;;;;15.07;81.31;100725.75;5045166;27;20143;-77
2023/07/09 11:35:50;;;;;;;1.83;1.00;;;;;;;15.01;82.67;100738.72;5054078;28;20037;-78
2023/07/09 11:38:21;;;;;;;2.17;0.70;;;;;;;14.97;82.46;100747.34;5054871;28;20048;-78
2023/07/09 11:40:51;;;;;;;2.53;1.08;;;;;;;14.90;82.94;100746.41;5046700;28;20041;-78
2023/07/09 11:43:32;;;;;;;1.80;1.02;;;;;;;14.87;83.60;100744.66;5042224;28;20104;-78